Time;durP1;ratioP1;P1;durP2;ratioP2;P2;SDS_P1;SDS_P2;PMS_P1;PMS_P2;Temp;Humidity;BMP_temperature;BMP_pressure;BME280_temperature;BME280_humidity;BME280_pressure;Samples;Min_cycle;Max_cycle;Signal;HPM_P1;HPM_P2
2022/01/13 00:00:31;;;;;;;16.13;7.20;;;;;;;-1.39;43.29;102468.97;5030971;28;20444;-74
2022/01/13 00:02:56;;;;;;;15.35;8.15;;;;;;;-1.34;43.15;102475.09;5028397;28;20457;-74
2022/01/13 00:05:28;;;;;;;30.17;10.68;;;;;;;-1.31;43.07;102468.91;5013285;28;20053;-74
2022/01/13 00:07:58;;;;;;;35.80;12.23;;;;;;;-1.38;42.75;102457.53;5031039;28;20468;-75
2022/01/13 00:10:27;;;;;;;20.80;7.35;;;;;;;-1.39;42.92;102495.34;5031555;28;20021;-75
2022/01/13 00:13:01;;;;;;;24.55;7.88;;;;;;;-1.36;42.73;102476.88;5031090;28;20029;-75
2022/01/13 00:15:51;;;;;;;12.57;6.00;;;;;;;-1.51;42.21;102492.75;5030959;28;20021;-74
2022/01/13 00:18:37;;;;;;;16.63;5.75;;;;;;;-1.50;42.59;102494.50;5027281;28;20037;-76
2022/01/13 00:24:02;;;;;;;11.57;5.78;;;;;;;-1.69;43.14;102503.31;5009220;28;20092;-75
2022/01/13 00:26:30;;;;;;;16.55;5.82;;;;;;;-1.53;42.73;102510.34;5016769;28;20348;-75
2022/01/13 00:28:59;;;;;;;14.43;6.22;;;;;;;-1.52;42.63;102505.91;5034659;28;20020;-75
2022/01/13 00:31:30;;;;;;;10.93;5.63;;;;;;;-1.47;42.43;102518.25;5034098;28;20032;-75
2022/01/13 00:33:58;;;;;;;20.15;6.68;;;;;;;-1.45;42.35;102523.50;5031524;28;20022;-75
2022/01/13 00:36:26;;;;;;;18.17;6.55;;;;;;;-1.56;41.71;102523.50;5034088;28;20104;-75
2022/01/13 00:38:52;;;;;;;14.95;5.43;;;;;;;-1.52;42.19;102517.34;5034032;28;20021;-74
2022/01/13 00:41:19;;;;;;;16.55;6.45;;;;;;;-1.58;42.17;102513.84;5034190;28;20017;-74
2022/01/13 00:43:46;;;;;;;17.33;5.50;;;;;;;-1.60;42.08;102507.69;5033807;28;20025;-74
2022/01/13 00:46:19;;;;;;;11.85;5.28;;;;;;;-1.80;41.77;102510.34;5033804;28;20097;-74
2022/01/13 00:48:45;;;;;;;10.75;5.22;;;;;;;-1.78;42.38;102498.94;5015866;28;20542;-74
2022/01/13 00:51:11;;;;;;;24.63;6.57;;;;;;;-1.88;42.75;102512.13;5033680;28;20112;-76
2022/01/13 00:53:36;;;;;;;12.95;6.50;;;;;;;-1.83;42.88;102510.34;5019840;28;20049;-76
2022/01/13 00:56:02;;;;;;;11.05;5.25;;;;;;;-1.72;42.42;102520.03;5053735;28;20052;-75
2022/01/13 00:58:30;;;;;;;11.65;5.28;;;;;;;-1.95;42.76;102500.69;5053915;28;20359;-75
2022/01/13 01:00:57;;;;;;;10.90;5.53;;;;;;;-1.92;42.96;102510.34;5053493;28;20086;-75
2022/01/13 01:03:23;;;;;;;11.65;6.07;;;;;;;-1.97;42.19;102506.84;5053668;28;20036;-74
2022/01/13 01:05:49;;;;;;;11.27;5.10;;;;;;;-2.01;42.50;102505.09;5053714;28;20029;-75
2022/01/13 01:08:15;;;;;;;12.02;5.40;;;;;;;-1.94;42.36;102512.13;5053629;28;20036;-75
2022/01/13 01:10:42;;;;;;;10.82;5.80;;;;;;;-1.91;42.64;102514.75;5053533;28;20067;-75
2022/01/13 01:13:13;;;;;;;8.63;4.95;;;;;;;-1.92;42.74;102520.91;5053587;28;20040;-74
2022/01/13 01:15:42;;;;;;;14.93;5.93;;;;;;;-1.94;42.62;102517.41;5050787;28;20052;-75
2022/01/13 01:26:36;;;;;;;14.05;5.40;;;;;;;-1.58;42.27;102524.41;5050723;28;20500;-75
2022/01/13 01:31:36;;;;;;;13.43;4.78;;;;;;;-1.62;41.44;102520.88;5053164;28;20032;-75
2022/01/13 01:36:28;;;;;;;11.30;4.90;;;;;;;-1.66;41.73;102522.66;5053252;28;20462;-75
2022/01/13 01:38:56;;;;;;;11.93;5.18;;;;;;;-1.71;42.04;102510.34;5052843;28;20064;-75
2022/01/13 01:41:21;;;;;;;15.68;5.32;;;;;;;-1.78;42.37;102513.88;5053042;28;20101;-75
2022/01/13 01:43:48;;;;;;;10.40;5.72;;;;;;;-1.81;42.37;102511.25;5053288;28;20100;-75
2022/01/13 01:46:14;;;;;;;12.27;6.13;;;;;;;-1.94;42.44;102528.81;5052690;28;20086;-75
2022/01/13 01:48:39;;;;;;;17.35;5.28;;;;;;;-1.87;42.48;102522.69;5035196;28;20021;-75
2022/01/13 01:51:05;;;;;;;18.35;5.93;;;;;;;-1.87;42.52;102524.44;5052981;28;20028;-75
2022/01/13 01:53:31;;;;;;;8.23;4.85;;;;;;;-1.78;42.84;102529.72;5052467;28;20505;-75
2022/01/13 01:55:57;;;;;;;11.98;5.43;;;;;;;-1.76;42.60;102534.09;5052738;28;20025;-76
2022/01/13 01:58:27;;;;;;;20.13;6.25;;;;;;;-1.81;42.64;102520.03;5052968;28;20115;-75
2022/01/13 02:00:55;;;;;;;10.43;5.47;;;;;;;-1.76;42.56;102554.31;5052535;28;20074;-77
2022/01/13 02:03:22;;;;;;;16.70;5.68;;;;;;;-1.90;42.31;102529.72;5052867;28;20022;-74
2022/01/13 02:05:48;;;;;;;18.88;5.93;;;;;;;-1.94;42.88;102523.56;5052433;28;20083;-73
2022/01/13 02:08:14;;;;;;;11.13;4.88;;;;;;;-1.90;42.70;102533.22;5052101;28;20024;-75
2022/01/13 02:10:39;;;;;;;14.93;6.32;;;;;;;-1.76;42.44;102535.84;5052405;28;20067;-75
2022/01/13 02:13:09;;;;;;;12.93;6.72;;;;;;;-1.84;42.79;102534.97;5052084;28;20115;-75
2022/01/13 02:15:46;;;;;;;14.80;6.32;;;;;;;-1.79;43.16;102530.56;5051604;28;20107;-74
2022/01/13 02:18:12;;;;;;;15.70;6.63;;;;;;;-1.86;42.99;102527.06;5052097;28;20120;-74
2022/01/13 02:20:50;;;;;;;12.43;6.72;;;;;;;-1.73;42.94;102530.56;5052027;28;20121;-74
2022/01/13 02:23:31;;;;;;;13.25;5.65;;;;;;;-1.65;42.86;102536.72;5051776;28;20021;-74
2022/01/13 02:25:57;;;;;;;20.73;6.30;;;;;;;-1.50;42.97;102530.56;5051780;28;20453;-74
2022/01/13 02:28:22;;;;;;;10.73;5.47;;;;;;;-1.56;42.58;102541.97;5051850;28;20028;-74
2022/01/13 02:30:48;;;;;;;14.52;5.70;;;;;;;-1.63;43.02;102550.81;5033811;28;20066;-74
2022/01/13 02:33:13;;;;;;;10.55;6.60;;;;;;;-1.59;42.76;102541.97;5051654;28;20024;-75
2022/01/13 02:35:39;;;;;;;13.63;6.75;;;;;;;-1.62;43.15;102520.03;5051881;28;20024;-74
2022/01/13 02:38:09;;;;;;;12.95;5.43;;;;;;;-1.63;43.02;102555.19;5051829;28;20104;-74
2022/01/13 02:40:34;;;;;;;13.60;6.05;;;;;;;-1.62;43.22;102535.84;5051352;28;20044;-74
2022/01/13 02:43:00;;;;;;;17.25;6.20;;;;;;;-1.62;42.87;102547.25;5051688;28;20478;-74
2022/01/13 02:45:32;;;;;;;11.10;5.70;;;;;;;-1.62;42.76;102541.97;5051841;28;20059;-74
2022/01/13 02:48:12;;;;;;;18.77;6.63;;;;;;;-1.65;43.10;102541.97;5049192;28;20399;-75
2022/01/13 02:50:40;;;;;;;14.27;6.70;;;;;;;-1.76;43.35;102554.31;5049153;28;20462;-75
2022/01/13 02:53:07;;;;;;;16.80;6.85;;;;;;;-1.78;43.28;102551.69;5052142;28;20059;-75
2022/01/13 02:55:33;;;;;;;12.00;6.43;;;;;;;-1.79;43.91;102554.31;5051612;28;20565;-75
2022/01/13 02:57:59;;;;;;;13.60;6.88;;;;;;;-1.74;43.80;102544.63;5051674;28;20107;-75
2022/01/13 03:00:25;;;;;;;15.77;6.53;;;;;;;-1.73;43.25;102560.47;5051942;28;20025;-75
2022/01/13 03:02:51;;;;;;;15.07;6.85;;;;;;;-1.86;43.51;102548.16;5052028;28;20436;-75
2022/01/13 03:05:17;;;;;;;18.17;7.45;;;;;;;-1.83;43.80;102547.28;5051724;28;20028;-75
2022/01/13 03:07:42;;;;;;;16.83;7.32;;;;;;;-1.95;43.80;102542.88;5051327;28;20016;-75
2022/01/13 03:10:10;;;;;;;20.52;7.13;;;;;;;-1.96;44.12;102546.41;5051558;28;20193;-75
2022/01/13 03:12:39;;;;;;;22.38;8.02;;;;;;;-1.91;43.70;102554.31;5050885;28;20557;-75
2022/01/13 03:15:05;;;;;;;11.57;6.63;;;;;;;-1.80;43.63;102552.53;5051602;28;20104;-75
2022/01/13 03:17:30;;;;;;;14.43;6.43;;;;;;;-1.99;44.06;102545.53;5051685;28;20506;-75
2022/01/13 03:19:56;;;;;;;15.80;6.78;;;;;;;-1.96;43.77;102549.06;5051297;28;20025;-75
2022/01/13 03:22:21;;;;;;;18.75;7.38;;;;;;;-2.09;43.76;102549.03;5051494;28;20017;-75
2022/01/13 03:24:47;;;;;;;12.45;6.88;;;;;;;-2.32;44.50;102549.84;5051356;28;20025;-75
2022/01/13 03:27:19;;;;;;;18.65;6.97;;;;;;;-2.26;44.87;102551.63;5051562;28;20494;-74
2022/01/13 03:29:45;;;;;;;;;;;;;;;-2.23;44.63;102549.88;5050100;28;20591;-74
2022/01/13 03:32:10;;;;;;;17.55;6.97;;;;;;;-2.27;44.90;102555.16;5052100;28;19955;-75
2022/01/13 03:34:36;;;;;;;17.90;7.88;;;;;;;-2.42;45.30;102545.47;5051242;28;20020;-75
2022/01/13 03:37:01;;;;;;;15.07;7.03;;;;;;;-2.28;45.45;102549.00;5051498;28;20021;-75
2022/01/13 03:39:28;;;;;;;19.92;7.60;;;;;;;-2.29;45.02;102547.22;5051381;28;20049;-75
2022/01/13 03:41:54;;;;;;;13.50;6.68;;;;;;;-2.16;45.12;102568.34;5050761;28;20436;-75
2022/01/13 03:44:28;;;;;;;15.77;6.85;;;;;;;-2.15;45.07;102564.81;5051586;28;20021;-75
2022/01/13 03:47:02;;;;;;;11.30;6.90;;;;;;;-2.14;44.84;102563.97;5050725;28;20028;-77
2022/01/13 03:49:28;;;;;;;14.80;6.88;;;;;;;-2.20;45.21;102570.97;5052529;28;20096;-82
2022/01/13 03:51:55;;;;;;;14.07;6.68;;;;;;;-2.27;45.10;102563.06;5052413;28;20398;-83
2022/01/13 03:54:36;;;;;;;18.60;7.68;;;;;;;-2.22;45.23;102562.19;5056196;28;20045;-84
2022/01/13 03:57:38;;;;;;;17.27;8.23;;;;;;;-2.29;45.05;102563.03;5056319;28;20092;-83
2022/01/13 04:00:24;;;;;;;22.38;7.05;;;;;;;-2.45;45.15;102569.16;5056021;28;20036;-83
2022/01/13 04:02:50;;;;;;;14.95;7.20;;;;;;;-2.45;45.95;102574.44;5055920;28;20021;-82
2022/01/13 04:05:16;;;;;;;20.38;7.72;;;;;;;-2.54;45.68;102570.88;5056035;28;20021;-83
2022/01/13 04:07:41;;;;;;;16.73;7.78;;;;;;;-2.64;45.83;102569.97;5055974;28;20127;-82
2022/01/13 04:10:52;;;;;;;18.90;8.00;;;;;;;-2.41;45.84;102583.19;5055831;28;20066;-82
2022/01/13 04:13:44;;;;;;;16.88;8.15;;;;;;;-2.32;45.93;102577.97;5055348;28;20035;-83
2022/01/13 04:16:09;;;;;;;17.40;8.57;;;;;;;-2.22;44.95;102580.63;5055351;28;20098;-83
2022/01/13 04:18:35;;;;;;;17.02;8.02;;;;;;;-2.16;45.33;102579.75;5055526;28;20413;-83
2022/01/13 04:21:01;;;;;;;16.38;8.70;;;;;;;-2.16;45.14;102584.16;5055360;28;20025;-83
2022/01/13 04:23:26;;;;;;;14.07;7.75;;;;;;;-2.11;44.90;102585.91;5055181;28;20028;-83
2022/01/13 04:25:52;;;;;;;21.15;8.20;;;;;;;-2.13;44.65;102581.50;5055203;28;20056;-84
2022/01/13 04:28:20;;;;;;;17.02;8.02;;;;;;;-2.05;45.03;102592.97;5055291;28;20102;-84
2022/01/13 04:30:48;;;;;;;21.92;9.68;;;;;;;-1.97;44.65;102591.22;5055844;28;20104;-84
2022/01/13 04:33:14;;;;;;;14.77;8.38;;;;;;;-2.03;45.12;102597.38;5055209;28;20343;-84
2022/01/13 04:35:41;;;;;;;17.83;8.30;;;;;;;-1.91;45.06;102601.78;5055209;28;20021;-83
2022/01/13 04:38:07;;;;;;;15.70;7.88;;;;;;;-1.83;44.70;102597.38;5055523;28;20081;-83
2022/01/13 04:40:33;;;;;;;26.42;9.25;;;;;;;-1.76;44.88;102602.66;5054959;28;20178;-82
2022/01/13 04:42:59;;;;;;;16.60;7.82;;;;;;;-1.68;44.89;102610.56;5054627;28;20029;-83
2022/01/13 04:45:25;;;;;;;19.50;8.55;;;;;;;-1.65;44.67;102600.03;5055564;28;20071;-83
2022/01/13 04:47:53;;;;;;;15.57;8.18;;;;;;;-1.56;44.38;102607.09;5055168;28;20029;-82
2022/01/13 04:50:21;;;;;;;23.25;10.25;;;;;;;-1.57;44.15;102605.31;5054798;28;20120;-82
2022/01/13 04:52:46;;;;;;;34.55;9.40;;;;;;;-1.54;44.43;102610.59;5054972;28;20028;-82
2022/01/13 04:55:12;;;;;;;24.88;9.68;;;;;;;-1.60;44.20;102598.28;5054920;28;20052;-82
2022/01/13 04:57:39;;;;;;;23.33;9.77;;;;;;;-1.70;44.81;102607.06;5054731;28;20101;-82
2022/01/13 05:00:07;;;;;;;25.13;10.00;;;;;;;-1.69;44.47;102614.09;5054763;28;20031;-83
2022/01/13 05:02:32;;;;;;;23.05;8.77;;;;;;;-1.79;44.51;102585.97;5054871;28;20040;-82
2022/01/13 05:04:58;;;;;;;22.35;9.55;;;;;;;-1.71;44.47;102610.56;5053934;28;20021;-82
2022/01/13 05:07:24;;;;;;;25.42;8.25;;;;;;;-1.82;44.35;102620.25;5054983;28;20536;-83
2022/01/13 05:09:49;;;;;;;18.55;9.35;;;;;;;-1.97;44.42;102615.84;5054935;28;20021;-82
2022/01/13 05:12:15;;;;;;;39.00;8.35;;;;;;;-2.08;44.41;102607.00;5055102;28;20108;-83
2022/01/13 05:14:40;;;;;;;19.00;8.05;;;;;;;-2.23;44.91;102614.88;5054892;28;20048;-79
2022/01/13 05:17:34;;;;;;;28.30;11.40;;;;;;;-2.55;45.64;102620.06;5054014;28;20505;-79
2022/01/13 05:20:11;;;;;;;23.17;10.73;;;;;;;-2.53;46.13;102615.66;5049851;28;20032;-79
2022/01/13 05:22:36;;;;;;;18.10;10.05;;;;;;;-2.50;46.48;102635.84;5054817;28;20021;-79
2022/01/13 05:25:04;;;;;;;26.80;10.07;;;;;;;-2.55;46.41;102627.97;5055170;28;20033;-78
2022/01/13 05:27:30;;;;;;;33.05;9.77;;;;;;;-2.59;47.15;102641.97;5055016;28;20021;-79
2022/01/13 05:29:55;;;;;;;18.15;9.95;;;;;;;-2.54;46.81;102644.66;5053656;28;20024;-76
2022/01/13 05:32:20;;;;;;;17.05;8.73;;;;;;;-2.53;46.75;102623.56;5053918;28;20075;-78
2022/01/13 05:34:46;;;;;;;18.13;8.95;;;;;;;-2.64;46.18;102627.03;5053616;28;20455;-77
2022/01/13 05:37:11;;;;;;;23.50;9.93;;;;;;;-2.72;46.33;102616.44;5054387;28;20029;-78
2022/01/13 05:39:37;;;;;;;24.67;9.52;;;;;;;-2.61;46.68;102630.56;5054213;28;20076;-81
2022/01/13 05:42:03;;;;;;;22.90;9.75;;;;;;;-2.61;47.11;102649.00;5054200;28;20021;-82
2022/01/13 05:44:28;;;;;;;26.80;9.18;;;;;;;-2.54;47.05;102650.78;5053766;28;20044;-80
2022/01/13 05:46:54;;;;;;;21.98;10.68;;;;;;;-2.73;47.59;102617.34;5054328;28;20021;-83
2022/01/13 05:49:19;;;;;;;30.00;12.68;;;;;;;-2.61;47.52;102627.94;5054627;28;20021;-84
2022/01/13 05:51:45;;;;;;;32.72;10.68;;;;;;;-2.88;46.93;102601.47;5054392;28;20028;-85
2022/01/13 05:54:10;;;;;;;28.02;12.98;;;;;;;-3.03;48.11;102596.13;5035112;28;20523;-86
2022/01/13 05:56:36;;;;;;;33.22;12.02;;;;;;;-2.72;48.12;102650.69;5054501;28;20435;-80
2022/01/13 05:59:01;;;;;;;27.48;12.27;;;;;;;-3.01;48.23;102597.00;5055027;28;20035;-87
2022/01/13 06:01:27;;;;;;;35.05;12.90;;;;;;;-2.87;48.66;102608.47;5054867;28;20107;-89
2022/01/13 06:03:52;;;;;;;22.35;12.32;;;;;;;-2.83;48.75;102610.25;5037890;28;20047;-90
2022/01/13 06:06:17;;;;;;;34.97;15.50;;;;;;;-2.74;48.18;102612.94;5038542;28;20053;-89
2022/01/13 06:08:43;;;;;;;36.97;14.38;;;;;;;-2.50;47.53;102641.13;5038337;28;20020;-88
2022/01/13 06:11:09;;;;;;;31.77;12.70;;;;;;;-2.61;47.72;102630.56;5041254;28;20571;-89
2022/01/13 06:13:34;;;;;;;24.23;12.80;;;;;;;-2.67;47.51;102608.59;5065694;28;20028;-90
2022/01/13 06:16:00;;;;;;;33.20;10.95;;;;;;;-2.47;47.79;102630.59;5041641;28;20025;-87
2022/01/13 06:18:25;;;;;;;26.88;13.23;;;;;;;-2.33;47.17;102645.63;5042256;28;20021;-90
2022/01/13 06:20:51;;;;;;;34.13;12.70;;;;;;;-2.48;47.03;102635.03;5055198;28;20552;-85
2022/01/13 06:23:17;;;;;;;30.55;13.88;;;;;;;-2.50;47.47;102623.56;5054446;28;20155;-91
2022/01/13 06:25:43;;;;;;;35.83;13.85;;;;;;;-2.32;48.03;102647.34;5036527;28;20490;-85
2022/01/13 06:28:09;;;;;;;27.67;12.65;;;;;;;-2.32;47.47;102652.63;5055494;28;20025;-86
2022/01/13 06:30:35;;;;;;;31.75;12.98;;;;;;;-2.20;47.47;102642.13;5055492;28;20099;-90
2022/01/13 06:33:01;;;;;;;26.92;11.18;;;;;;;-2.30;47.29;102652.66;5038203;28;20052;-90
2022/01/13 06:35:26;;;;;;;33.38;11.88;;;;;;;-2.45;47.18;102635.03;5037256;28;20024;-93
2022/01/13 06:37:53;;;;;;;28.17;12.85;;;;;;;-2.50;47.61;102636.75;5037304;28;20025;-92
2022/01/13 06:40:19;;;;;;;33.40;16.88;;;;;;;-2.27;47.24;102642.13;5036348;28;20021;-83
2022/01/13 06:42:44;;;;;;;30.30;13.30;;;;;;;-2.23;46.91;102630.69;5055784;28;20027;-92
2022/01/13 06:45:11;;;;;;;25.30;11.55;;;;;;;-2.12;47.04;102659.72;5036652;28;20025;-80
2022/01/13 06:47:40;;;;;;;36.85;14.80;;;;;;;-2.02;46.49;102658.88;5053490;28;20052;-82
2022/01/13 06:50:08;;;;;;;42.33;18.13;;;;;;;-1.90;46.63;102661.56;5036110;28;20028;-86
2022/01/13 06:52:33;;;;;;;33.03;14.40;;;;;;;-1.94;46.43;102642.19;5055817;28;20055;-89
2022/01/13 06:54:58;;;;;;;26.02;13.65;;;;;;;-2.10;46.80;102668.50;5038216;28;20536;-90
2022/01/13 06:57:24;;;;;;;37.95;16.70;;;;;;;-2.25;46.78;102635.97;5037700;28;20074;-92
2022/01/13 06:59:50;;;;;;;28.98;13.18;;;;;;;-2.03;46.38;102659.75;5046651;28;20029;-93
2022/01/13 07:02:15;;;;;;;40.13;15.23;;;;;;;-1.97;46.27;102649.22;5021230;28;20032;-90
2022/01/13 07:04:43;;;;;;;33.63;14.23;;;;;;;-2.15;46.14;102651.81;5020745;28;20392;-94
2022/01/13 07:07:09;;;;;;;25.48;11.73;;;;;;;-1.87;46.70;102680.91;5020438;28;20025;-92
2022/01/13 07:09:35;;;;;;;37.03;14.98;;;;;;;-1.81;46.18;102666.84;5016227;28;20211;-87
2022/01/13 07:12:00;;;;;;;29.95;13.00;;;;;;;-1.87;46.40;102665.09;5017120;28;20025;-88
2022/01/13 07:14:26;;;;;;;41.70;15.48;;;;;;;-1.67;46.60;102665.09;5017486;28;20052;-88
2022/01/13 07:16:51;;;;;;;32.55;13.75;;;;;;;-1.51;45.96;102685.34;5033484;28;20112;-79
2022/01/13 07:19:17;;;;;;;37.08;15.13;;;;;;;-1.61;46.04;102673.03;5034332;28;20065;-83
2022/01/13 07:21:44;;;;;;;48.53;17.00;;;;;;;-1.71;46.35;102652.78;5032809;28;20072;-81
2022/01/13 07:24:11;;;;;;;30.35;13.68;;;;;;;-1.44;46.00;102689.78;5032350;28;20054;-81
2022/01/13 07:26:37;;;;;;;33.83;16.40;;;;;;;-1.41;46.08;102680.97;5034406;28;20018;-85
2022/01/13 07:29:04;;;;;;;31.45;16.02;;;;;;;-1.37;46.01;102698.53;5038082;28;20064;-84
2022/01/13 07:31:30;;;;;;;36.22;16.13;;;;;;;-1.21;45.71;102701.19;5019220;28;20025;-80
2022/01/13 07:33:56;;;;;;;32.28;14.48;;;;;;;-1.21;45.87;102700.31;5036516;28;20017;-80
2022/01/13 07:36:22;;;;;;;34.40;15.63;;;;;;;-1.29;46.10;102688.88;5019195;28;20025;-79
2022/01/13 07:38:47;;;;;;;39.45;14.25;;;;;;;-1.00;46.16;102702.94;5036900;28;20441;-82
2022/01/13 07:41:13;;;;;;;52.47;15.95;;;;;;;-0.95;45.59;102698.56;5040690;28;20052;-80
2022/01/13 07:43:43;;;;;;;30.13;14.32;;;;;;;-0.95;45.66;102697.69;5056385;28;20446;-80
2022/01/13 07:46:09;;;;;;;42.63;17.38;;;;;;;-0.99;45.48;102694.16;5056837;28;20040;-81
2022/01/13 07:48:34;;;;;;;35.30;15.85;;;;;;;-0.87;45.52;102709.09;5056767;28;20040;-81
2022/01/13 07:51:00;;;;;;;35.95;16.98;;;;;;;-0.98;45.52;102680.06;5056152;28;20017;-79
2022/01/13 07:53:25;;;;;;;40.35;14.68;;;;;;;-0.95;45.24;102695.91;5055674;28;20420;-80
2022/01/13 07:55:51;;;;;;;32.28;16.42;;;;;;;-0.78;45.06;102702.06;5055885;28;20021;-81
2022/01/13 07:58:17;;;;;;;25.65;13.77;;;;;;;-0.94;45.11;102675.66;5055981;28;20055;-81
2022/01/13 08:00:42;;;;;;;35.10;16.20;;;;;;;-0.82;45.21;102672.97;5055791;28;20025;-79
2022/01/13 08:03:08;;;;;;;42.75;14.98;;;;;;;-0.49;45.68;102715.22;5056555;28;20052;-78
2022/01/13 08:05:33;;;;;;;29.23;13.38;;;;;;;-0.70;45.32;102686.16;5056597;28;20025;-81
2022/01/13 08:07:59;;;;;;;33.05;15.07;;;;;;;-0.51;45.53;102693.16;5057262;28;20051;-80
2022/01/13 08:10:24;;;;;;;34.67;15.65;;;;;;;-0.53;45.17;102696.72;5038632;28;20105;-80
2022/01/13 08:12:50;;;;;;;38.97;16.92;;;;;;;-0.49;45.47;102680.84;5055741;28;20028;-79
2022/01/13 08:15:15;;;;;;;38.03;16.40;;;;;;;-0.29;45.63;102699.25;5038414;28;20533;-79
2022/01/13 08:20:27;;;;;;;39.35;16.52;;;;;;;-0.16;44.92;102688.66;5055841;28;20429;-81
2022/01/13 08:22:52;;;;;;;32.35;16.30;;;;;;;-0.06;44.93;102711.50;5057159;28;20039;-81
2022/01/13 08:25:19;;;;;;;31.25;14.43;;;;;;;0.05;44.85;102710.59;5037778;28;20025;-81
2022/01/13 08:27:45;;;;;;;39.00;15.38;;;;;;;0.22;45.28;102706.06;5055585;28;20025;-84
2022/01/13 08:30:11;;;;;;;38.78;16.88;;;;;;;0.20;44.96;102677.00;5055730;28;20028;-82
2022/01/13 08:32:37;;;;;;;34.50;16.17;;;;;;;0.27;44.63;102675.19;5055888;28;20024;-82
2022/01/13 08:35:03;;;;;;;34.85;16.77;;;;;;;0.45;45.10;102686.53;5038020;28;20440;-80
2022/01/13 08:37:30;;;;;;;30.02;14.57;;;;;;;0.57;44.93;102682.91;5056161;28;20108;-85
2022/01/13 08:39:56;;;;;;;32.10;15.10;;;;;;;0.73;44.55;102667.78;5056971;28;20024;-88
2022/01/13 08:42:22;;;;;;;41.72;15.85;;;;;;;0.70;44.31;102652.81;5057316;28;20090;-85
2022/01/13 08:44:48;;;;;;;32.00;15.70;;;;;;;0.90;44.56;102664.09;5037400;28;20466;-83
2022/01/13 08:47:14;;;;;;;39.88;16.95;;;;;;;1.05;44.25;102671.91;5056960;28;20480;-80
2022/01/13 08:49:39;;;;;;;29.23;15.05;;;;;;;1.12;44.39;102658.59;5055280;28;20020;-79
2022/01/13 08:52:06;;;;;;;40.75;18.20;;;;;;;1.27;44.72;102663.72;5055250;28;20047;-81
2022/01/13 08:54:32;;;;;;;34.53;16.92;;;;;;;1.44;44.87;102667.06;5055167;28;20049;-81
2022/01/13 08:56:58;;;;;;;37.88;18.08;;;;;;;1.75;44.71;102699.41;5056682;28;20021;-87
2022/01/13 08:59:23;;;;;;;33.88;16.40;;;;;;;1.88;44.80;102686.00;5037392;28;20025;-80
2022/01/13 09:01:49;;;;;;;36.17;17.05;;;;;;;1.96;44.89;102700.03;5055197;28;20029;-81
2022/01/13 09:04:14;;;;;;;38.85;17.27;;;;;;;1.92;45.21;102677.09;5055495;28;20052;-82
2022/01/13 09:06:40;;;;;;;48.80;17.90;;;;;;;2.01;45.05;102681.41;5055268;28;20023;-82
2022/01/13 09:09:05;;;;;;;50.05;19.80;;;;;;;2.06;45.37;102672.47;5037395;28;20025;-83
2022/01/13 09:11:31;;;;;;;39.00;18.77;;;;;;;2.19;45.35;102674.06;5055163;28;20483;-82
2022/01/13 09:13:57;;;;;;;37.95;18.30;;;;;;;2.20;45.47;102649.25;5055190;28;20060;-82
2022/01/13 09:16:30;;;;;;;29.77;16.48;;;;;;;2.29;45.13;102661.56;5055124;28;20497;-83
2022/01/13 09:21:23;;;;;;;32.88;16.02;;;;;;;2.31;44.58;102614.59;5055977;28;19916;-84
2022/01/13 09:23:49;;;;;;;34.97;16.17;;;;;;;2.38;44.83;102623.34;5055220;28;20108;-84
2022/01/13 09:26:15;;;;;;;36.83;16.83;;;;;;;2.27;44.84;102623.50;5037064;28;20021;-85
2022/01/13 09:28:40;;;;;;;34.85;15.90;;;;;;;2.25;44.88;102616.47;5054913;28;20021;-86
2022/01/13 09:31:06;;;;;;;28.92;15.00;;;;;;;2.09;45.05;102594.59;5055147;28;20025;-86
2022/01/13 09:33:32;;;;;;;39.00;17.08;;;;;;;2.21;45.22;102594.41;5054747;28;20031;-81
2022/01/13 09:35:59;;;;;;;33.95;16.38;;;;;;;2.33;45.82;102604.81;5054797;28;20025;-84
2022/01/13 09:38:24;;;;;;;29.42;16.48;;;;;;;2.43;45.43;102598.47;5054947;28;20112;-83
2022/01/13 09:40:53;;;;;;;29.48;16.52;;;;;;;2.41;45.45;102602.06;5054754;28;20571;-82
2022/01/13 09:43:24;;;;;;;36.30;16.85;;;;;;;2.28;45.68;102587.22;5054722;28;20104;-84
2022/01/13 09:45:51;;;;;;;37.33;16.38;;;;;;;2.19;46.18;102589.13;5054991;28;20494;-88
2022/01/13 09:48:17;;;;;;;34.35;17.55;;;;;;;2.17;46.60;102590.06;5036930;28;20028;-84
2022/01/13 09:50:46;;;;;;;45.22;20.13;;;;;;;2.08;47.09;102561.84;5036076;28;20031;-85
2022/01/13 09:53:12;;;;;;;33.50;17.35;;;;;;;2.34;46.41;102572.06;5035981;28;20021;-84
2022/01/13 09:55:39;;;;;;;32.88;16.42;;;;;;;2.48;45.80;102580.66;5054169;28;20025;-84
2022/01/13 09:58:10;;;;;;;36.45;18.45;;;;;;;2.55;46.25;102578.78;5054625;28;20459;-84
2022/01/13 10:00:40;;;;;;;42.47;19.90;;;;;;;2.45;46.04;102550.63;5047364;28;20084;-84
2022/01/13 10:03:25;;;;;;;48.35;21.02;;;;;;;2.51;46.60;102569.09;5054298;28;20029;-83
2022/01/13 10:06:07;;;;;;;36.75;17.02;;;;;;;2.51;46.56;102572.66;5035621;28;20025;-83
2022/01/13 10:08:50;;;;;;;38.50;19.30;;;;;;;2.31;46.88;102552.66;5035782;28;20025;-83
2022/01/13 10:11:28;;;;;;;31.38;16.80;;;;;;;2.18;47.67;102560.81;5053750;28;20036;-83
2022/01/13 10:16:54;;;;;;;29.13;15.27;;;;;;;2.21;47.80;102546.63;5054027;28;20040;-84
2022/01/13 10:19:30;;;;;;;35.25;18.00;;;;;;;2.20;48.24;102544.88;5053040;28;20528;-83
2022/01/13 10:21:59;;;;;;;34.95;17.13;;;;;;;2.22;48.18;102539.53;5035798;28;20028;-84
2022/01/13 10:24:26;;;;;;;41.97;18.67;;;;;;;2.24;48.33;102537.72;5054047;28;20486;-85
2022/01/13 10:27:06;;;;;;;40.38;18.70;;;;;;;2.24;48.38;102532.41;5035896;28;20025;-86
2022/01/13 10:29:51;;;;;;;42.70;18.40;;;;;;;2.16;48.64;102530.78;5053592;28;20040;-85
2022/01/13 10:32:19;;;;;;;32.28;17.50;;;;;;;2.18;48.75;102536.94;5053806;28;20079;-87
2022/01/13 10:34:49;;;;;;;39.70;20.10;;;;;;;2.31;49.21;102531.41;5036267;28;20063;-83
2022/01/13 10:37:20;;;;;;;32.88;18.60;;;;;;;2.46;48.70;102517.88;5055180;28;20051;-88
2022/01/13 10:39:59;;;;;;;35.58;17.60;;;;;;;2.74;48.29;102527.97;5054683;28;20103;-86
2022/01/13 10:45:10;;;;;;;40.20;20.08;;;;;;;2.90;48.18;102515.28;5055146;28;20025;-87
2022/01/13 10:47:36;;;;;;;38.67;17.33;;;;;;;2.97;48.15;102508.91;5035547;28;20021;-82
2022/01/13 10:50:12;;;;;;;37.55;19.58;;;;;;;2.96;47.71;102500.97;5053130;28;20027;-83
2022/01/13 10:52:38;;;;;;;35.13;17.67;;;;;;;2.85;47.36;102477.25;5053255;28;20021;-83
2022/01/13 10:55:08;;;;;;;34.83;16.23;;;;;;;2.90;47.70;102496.66;5054194;28;20136;-84
2022/01/13 10:57:36;;;;;;;40.03;19.77;;;;;;;2.93;47.85;102485.97;5052852;28;20036;-81
2022/01/13 11:00:04;;;;;;;49.00;22.35;;;;;;;2.98;47.91;102473.47;5034628;28;20024;-83
2022/01/13 11:02:29;;;;;;;42.40;20.83;;;;;;;3.07;48.03;102467.06;5034667;28;20020;-84
2022/01/13 11:05:01;;;;;;;44.70;19.38;;;;;;;3.13;47.33;102459.84;5052493;28;20082;-83
2022/01/13 11:07:27;;;;;;;41.45;18.10;;;;;;;3.28;47.41;102454.19;5052841;28;20028;-83
2022/01/13 11:10:03;;;;;;;39.67;18.08;;;;;;;3.35;47.44;102470.00;5052417;28;20404;-85
2022/01/13 11:12:36;;;;;;;73.45;22.25;;;;;;;3.23;47.16;102468.50;5052605;28;20033;-85
2022/01/13 11:15:06;;;;;;;34.63;19.05;;;;;;;3.25;47.41;102456.91;5053186;28;20055;-82
2022/01/13 11:17:35;;;;;;;32.17;16.52;;;;;;;3.26;46.64;102445.38;5034569;28;20039;-86
2022/01/13 11:20:02;;;;;;;72.45;21.42;;;;;;;3.37;47.22;102449.56;5052729;28;20403;-86
2022/01/13 11:22:34;;;;;;;51.75;20.23;;;;;;;3.63;47.50;102450.75;5034945;28;20028;-86
2022/01/13 11:24:59;;;;;;;78.27;21.93;;;;;;;3.63;46.78;102431.22;5034343;28;20020;-87
2022/01/13 11:27:25;;;;;;;82.07;24.42;;;;;;;3.84;47.62;102439.56;5034355;28;20024;-87
2022/01/13 11:29:52;;;;;;;35.88;18.92;;;;;;;3.79;45.96;102421.97;5034778;28;20021;-86
2022/01/13 11:32:17;;;;;;;36.50;17.95;;;;;;;3.90;45.90;102438.53;5034617;28;20025;-83
2022/01/13 11:34:45;;;;;;;39.90;19.60;;;;;;;3.68;45.59;102413.38;5034272;28;20743;-85
2022/01/13 11:37:11;;;;;;;65.28;25.25;;;;;;;3.71;46.05;102429.25;5052180;28;20029;-83
2022/01/13 11:39:42;;;;;;;31.35;18.27;;;;;;;3.56;46.48;102413.66;5053218;28;20021;-84
2022/01/13 11:42:12;;;;;;;49.00;19.50;;;;;;;3.67;46.73;102425.78;5053200;28;20017;-84
2022/01/13 11:44:39;;;;;;;52.33;23.05;;;;;;;3.74;46.56;102439.81;5034423;28;20017;-84